Time;durP1;ratioP1;P1;durP2;ratioP2;P2;SDS_P1;SDS_P2;PMS_P1;PMS_P2;Temp;Humidity;BMP_temperature;BMP_pressure;BME280_temperature;BME280_humidity;BME280_pressure;Samples;Min_cycle;Max_cycle;Signal;HPM_P1;HPM_P2
2023/02/26 00:00:11;;;;;;;4.78;2.25;;;;;1.40;98141.00;;;;4920489;29;20056;-67
2023/02/26 00:02:38;;;;;;;4.22;2.08;;;;;1.40;98131.00;;;;4935995;29;20512;-65
2023/02/26 00:05:05;;;;;;;4.63;3.20;;;;;1.50;98137.00;;;;4917157;29;20473;-63
2023/02/26 00:07:32;;;;;;;5.68;2.15;;;;;1.50;98141.00;;;;4918108;29;20409;-64
2023/02/26 00:10:00;;;;;;;6.57;2.47;;;;;1.40;98143.00;;;;4934559;29;20051;-66
2023/02/26 00:12:28;;;;;;;3.78;2.15;;;;;1.30;98135.00;;;;4933336;29;20039;-66
2023/02/26 00:14:55;;;;;;;5.20;2.30;;;;;1.30;98143.00;;;;4934265;29;20055;-66
2023/02/26 00:18:00;;;;;;;3.80;2.10;;;;;1.30;98145.00;;;;4943975;29;20036;-67
2023/02/26 00:20:27;;;;;;;;;;;;;1.40;98145.00;;;;4927776;29;20048;-65
2023/02/26 00:22:54;;;;;;;2.78;2.10;;;;;1.40;98139.00;;;;4943641;29;19923;-62
2023/02/26 00:25:20;;;;;;;4.60;1.98;;;;;1.40;98141.00;;;;4943623;29;20047;-63
2023/02/26 00:27:47;;;;;;;3.63;1.77;;;;;1.40;98150.00;;;;4945560;29;20063;-64
2023/02/26 00:30:14;;;;;;;4.90;2.75;;;;;1.40;98152.00;;;;4921351;29;20078;-63
2023/02/26 00:32:41;;;;;;;6.05;2.08;;;;;1.40;98158.00;;;;4918457;29;20047;-65
2023/02/26 00:35:12;;;;;;;2.70;1.70;;;;;1.50;98156.00;;;;4933752;29;20082;-65
2023/02/26 00:37:54;;;;;;;3.63;2.03;;;;;1.50;98155.00;;;;4932716;29;20040;-65
2023/02/26 00:40:47;;;;;;;3.42;1.90;;;;;1.50;98156.00;;;;4940266;29;20047;-65
2023/02/26 00:43:21;;;;;;;6.72;2.10;;;;;1.50;98154.00;;;;4921873;29;20072;-65
2023/02/26 00:46:29;;;;;;;4.60;2.05;;;;;1.60;98155.00;;;;4927717;29;20519;-66
2023/02/26 00:49:10;;;;;;;3.35;2.20;;;;;1.60;98149.00;;;;4921142;29;20539;-65
2023/02/26 00:51:49;;;;;;;4.20;2.38;;;;;1.50;98159.00;;;;4938784;29;20055;-65
2023/02/26 00:54:20;;;;;;;4.38;2.00;;;;;1.40;98150.00;;;;4921644;29;20052;-64
2023/02/26 00:56:51;;;;;;;2.60;1.92;;;;;1.20;98150.00;;;;4942951;29;20055;-67
2023/02/26 00:59:19;;;;;;;4.10;2.08;;;;;1.30;98154.00;;;;4928522;29;20058;-66
2023/02/26 01:01:47;;;;;;;5.47;2.63;;;;;1.40;98160.00;;;;4944758;29;20055;-65
2023/02/26 01:04:17;;;;;;;4.40;2.45;;;;;1.50;98156.00;;;;4922577;29;20130;-68
2023/02/26 01:06:46;;;;;;;3.13;2.17;;;;;1.50;98156.00;;;;4919541;29;21516;-64
2023/02/26 01:09:28;;;;;;;6.00;2.53;;;;;1.60;98156.00;;;;4920641;29;20040;-66
2023/02/26 01:12:02;;;;;;;6.38;2.65;;;;;1.60;98156.00;;;;4925055;29;20543;-65
2023/02/26 01:14:30;;;;;;;4.43;2.80;;;;;1.60;98159.00;;;;4943437;29;20039;-65
2023/02/26 01:17:24;;;;;;;2.50;2.30;;;;;1.50;98157.00;;;;4924560;29;20103;-64
2023/02/26 01:20:04;;;;;;;4.05;2.53;;;;;1.40;98162.00;;;;4953425;29;20043;-65
2023/02/26 01:22:36;;;;;;;5.25;3.08;;;;;1.30;98163.00;;;;4935588;29;20057;-64
2023/02/26 01:25:07;;;;;;;5.72;2.70;;;;;1.30;98160.00;;;;4916558;29;20044;-63
2023/02/26 01:27:34;;;;;;;5.95;2.70;;;;;1.40;98155.00;;;;4949687;29;20043;-64
2023/02/26 01:30:03;;;;;;;3.25;2.50;;;;;1.60;98167.00;;;;4942350;29;20048;-61
2023/02/26 01:32:58;;;;;;;3.88;2.15;;;;;1.50;98166.00;;;;4921783;29;20049;-61
2023/02/26 01:35:35;;;;;;;3.55;2.15;;;;;1.50;98164.00;;;;4916068;29;20051;-63
2023/02/26 01:38:26;;;;;;;7.47;2.50;;;;;1.60;98164.00;;;;4923235;29;20055;-63
2023/02/26 01:41:20;;;;;;;2.92;1.80;;;;;1.50;98159.00;;;;4897390;29;20279;-65
2023/02/26 01:43:59;;;;;;;4.50;2.42;;;;;1.50;98166.00;;;;4934126;28;20051;-65
2023/02/26 01:46:41;;;;;;;7.20;2.65;;;;;1.50;98167.00;;;;4957671;29;20076;-65
2023/02/26 01:49:14;;;;;;;3.08;1.67;;;;;1.50;98156.00;;;;4958805;29;20055;-67
2023/02/26 01:51:42;;;;;;;4.28;2.15;;;;;1.40;98153.00;;;;4959694;29;20062;-70
2023/02/26 01:54:09;;;;;;;4.10;2.05;;;;;1.40;98159.00;;;;4944754;29;20051;-66
2023/02/26 01:56:36;;;;;;;4.47;2.00;;;;;1.50;98159.00;;;;4959927;29;20047;-65
2023/02/26 01:59:04;;;;;;;5.07;2.72;;;;;1.60;98164.00;;;;4960850;29;20054;-65
2023/02/26 02:01:32;;;;;;;5.32;2.38;;;;;1.60;98161.00;;;;4952859;29;20047;-67
2023/02/26 02:03:59;;;;;;;4.70;2.45;;;;;1.70;98166.00;;;;4933856;29;20119;-65
2023/02/26 02:06:28;;;;;;;4.57;2.28;;;;;1.80;98158.00;;;;4946777;29;20051;-64
2023/02/26 02:08:55;;;;;;;5.85;2.40;;;;;1.90;98167.00;;;;4942616;29;20051;-65
2023/02/26 02:11:22;;;;;;;3.42;2.22;;;;;1.90;98157.00;;;;4948993;29;20040;-67
2023/02/26 02:14:14;;;;;;;4.70;2.42;;;;;1.90;98159.00;;;;4934679;29;20118;-65
2023/02/26 02:17:10;;;;;;;3.10;2.10;;;;;1.90;98160.00;;;;4948614;29;20127;-64
2023/02/26 02:19:55;;;;;;;3.60;2.00;;;;;1.80;98157.00;;;;4946848;29;20040;-64
2023/02/26 02:22:48;;;;;;;3.45;2.28;;;;;1.60;98168.00;;;;4945735;29;20051;-65
2023/02/26 02:25:39;;;;;;;2.58;1.83;;;;;1.50;98169.00;;;;4944800;29;20052;-67
2023/02/26 02:28:24;;;;;;;3.75;2.10;;;;;1.40;98170.00;;;;4945120;29;20075;-66
2023/02/26 02:31:21;;;;;;;4.05;1.75;;;;;1.40;98169.00;;;;4942383;29;20063;-65
2023/02/26 02:33:50;;;;;;;4.93;1.70;;;;;1.40;98168.00;;;;4941752;29;20070;-68
2023/02/26 02:36:34;;;;;;;8.48;2.15;;;;;1.40;98168.00;;;;4926184;29;20394;-64
2023/02/26 02:39:06;;;;;;;5.80;2.20;;;;;1.40;98172.00;;;;4942839;29;20050;-65
2023/02/26 02:41:39;;;;;;;5.30;1.83;;;;;1.40;98176.00;;;;4944038;29;20043;-66
2023/02/26 02:44:11;;;;;;;3.97;1.80;;;;;1.40;98180.00;;;;4941603;29;20122;-68
2023/02/26 02:46:40;;;;;;;4.72;1.80;;;;;1.40;98167.00;;;;4923027;29;20138;-67
2023/02/26 02:49:20;;;;;;;2.88;1.58;;;;;1.30;98180.00;;;;4939467;29;20521;-67
2023/02/26 02:51:51;;;;;;;4.55;1.75;;;;;1.20;98174.00;;;;4940384;29;20047;-67
2023/02/26 02:54:32;;;;;;;5.18;1.80;;;;;1.20;98173.00;;;;4923640;29;20056;-67
2023/02/26 02:57:16;;;;;;;3.15;1.75;;;;;1.10;98173.00;;;;4938869;29;20527;-67
2023/02/26 02:59:46;;;;;;;5.50;1.70;;;;;1.10;98181.00;;;;4938891;29;20058;-67
2023/02/26 03:02:29;;;;;;;4.18;2.17;;;;;1.10;98185.00;;;;4939800;29;20043;-67
2023/02/26 03:04:56;;;;;;;4.85;1.90;;;;;1.20;98192.00;;;;4939036;29;20047;-68
2023/02/26 03:07:23;;;;;;;6.43;2.17;;;;;1.20;98182.00;;;;4938917;29;20047;-67
2023/02/26 03:09:51;;;;;;;4.63;1.90;;;;;1.10;98189.00;;;;4940759;29;20153;-68
2023/02/26 03:12:18;;;;;;;6.50;2.03;;;;;1.10;98183.00;;;;4922412;29;20510;-67
2023/02/26 03:14:45;;;;;;;4.40;2.15;;;;;1.10;98180.00;;;;4922888;29;20052;-67
2023/02/26 03:17:22;;;;;;;2.95;1.83;;;;;1.10;98186.00;;;;4922639;29;20060;-66
2023/02/26 03:19:56;;;;;;;6.53;1.83;;;;;1.10;98187.00;;;;4922828;29;20504;-67
2023/02/26 03:22:50;;;;;;;8.13;2.20;;;;;1.00;98192.00;;;;4922205;29;20055;-67
2023/02/26 03:25:50;;;;;;;5.85;1.65;;;;;0.90;98195.00;;;;4908135;29;20102;-67
2023/02/26 03:28:49;;;;;;;3.42;1.70;;;;;0.80;98197.00;;;;4911804;29;20552;-67
2023/02/26 03:31:21;;;;;;;4.40;1.75;;;;;0.80;98199.00;;;;4912206;29;20531;-66
2023/02/26 03:34:09;;;;;;;6.00;1.77;;;;;0.70;98197.00;;;;4928198;29;20063;-68
2023/02/26 03:36:55;;;;;;;3.65;1.70;;;;;0.70;98196.00;;;;4937479;29;20059;-67
2023/02/26 03:39:30;;;;;;;3.75;1.67;;;;;0.70;98206.00;;;;4946011;29;20074;-67
2023/02/26 03:42:06;;;;;;;5.60;1.55;;;;;0.60;98206.00;;;;4955869;29;20053;-67
2023/02/26 03:45:06;;;;;;;3.28;1.83;;;;;0.60;98205.00;;;;4923847;29;20047;-67
2023/02/26 03:47:34;;;;;;;4.20;1.83;;;;;0.50;98214.00;;;;4924616;28;20043;-68
2023/02/26 03:50:07;;;;;;;3.35;1.65;;;;;0.50;98209.00;;;;4938826;29;20504;-68
2023/02/26 03:52:47;;;;;;;5.57;2.13;;;;;0.50;98213.00;;;;4938019;29;20054;-68
2023/02/26 03:55:44;;;;;;;4.20;1.77;;;;;0.50;98207.00;;;;4938397;29;20059;-68
2023/02/26 03:58:29;;;;;;;11.35;2.40;;;;;0.50;98215.00;;;;4955664;28;20132;-68
2023/02/26 04:01:22;;;;;;;3.78;1.70;;;;;0.50;98209.00;;;;4938059;29;20055;-68
2023/02/26 04:03:58;;;;;;;7.68;2.50;;;;;0.50;98216.00;;;;4921981;29;20059;-68
2023/02/26 04:06:25;;;;;;;7.03;1.88;;;;;0.60;98224.00;;;;4938030;29;20105;-68
2023/02/26 04:08:55;;;;;;;5.82;2.08;;;;;0.60;98213.00;;;;4937352;29;20039;-68
2023/02/26 04:11:24;;;;;;;3.38;2.03;;;;;0.60;98232.00;;;;4922632;29;20051;-66
2023/02/26 04:13:51;;;;;;;2.75;1.48;;;;;0.50;98228.00;;;;4954898;29;20082;-66
2023/02/26 04:16:18;;;;;;;4.55;1.80;;;;;0.50;98236.00;;;;4938106;29;20055;-67
2023/02/26 04:18:45;;;;;;;3.95;2.30;;;;;0.50;98225.00;;;;4937791;29;20071;-66
2023/02/26 04:21:14;;;;;;;5.30;2.63;;;;;0.60;98236.00;;;;4922295;28;20047;-66
2023/02/26 04:23:41;;;;;;;6.30;2.22;;;;;0.60;98236.00;;;;4954613;29;20146;-66
2023/02/26 04:26:08;;;;;;;2.63;1.88;;;;;0.60;98241.00;;;;4938088;29;20054;-66
2023/02/26 04:28:39;;;;;;;3.35;2.47;;;;;0.50;98245.00;;;;4938143;29;20460;-67
2023/02/26 04:31:06;;;;;;;7.97;2.90;;;;;0.50;98242.00;;;;4938100;29;20050;-66
2023/02/26 04:33:33;;;;;;;10.05;2.33;;;;;0.50;98247.00;;;;4921627;29;20050;-67
2023/02/26 04:36:00;;;;;;;4.22;2.03;;;;;0.50;98258.00;;;;4921866;29;20617;-67
2023/02/26 04:38:27;;;;;;;6.28;2.15;;;;;0.50;98258.00;;;;4955154;28;20580;-68
2023/02/26 04:40:54;;;;;;;4.75;2.20;;;;;0.50;98260.00;;;;4937656;29;20423;-68
2023/02/26 04:43:20;;;;;;;5.05;2.40;;;;;0.40;98251.00;;;;4937415;29;20102;-68
2023/02/26 04:46:09;;;;;;;3.80;2.08;;;;;0.40;98244.00;;;;4937992;29;20455;-67
2023/02/26 04:48:36;;;;;;;4.18;2.33;;;;;0.40;98250.00;;;;4921654;29;20085;-68
2023/02/26 04:51:03;;;;;;;7.00;2.40;;;;;0.30;98253.00;;;;4937529;29;20047;-69
2023/02/26 04:53:30;;;;;;;6.15;2.15;;;;;0.20;98263.00;;;;4937081;29;20075;-68
2023/02/26 04:55:56;;;;;;;5.88;2.63;;;;;0.30;98262.00;;;;4921628;29;20070;-68
2023/02/26 04:58:23;;;;;;;4.47;2.10;;;;;0.30;98257.00;;;;4954583;29;20043;-68
2023/02/26 05:00:52;;;;;;;8.93;2.58;;;;;0.30;98256.00;;;;4921487;29;20142;-68
2023/02/26 05:03:19;;;;;;;7.78;2.75;;;;;0.20;98261.00;;;;4937430;29;20464;-67
2023/02/26 05:05:46;;;;;;;6.22;2.25;;;;;0.20;98254.00;;;;4937609;29;20050;-68
2023/02/26 05:08:13;;;;;;;5.55;2.40;;;;;0.10;98259.00;;;;4937088;29;20448;-67
2023/02/26 05:10:39;;;;;;;7.40;2.78;;;;;0.10;98270.00;;;;4937364;29;20054;-67
2023/02/26 05:13:06;;;;;;;7.95;2.72;;;;;0.10;98265.00;;;;4936613;28;20456;-67
2023/02/26 05:15:33;;;;;;;3.03;2.60;;;;;0.10;98278.00;;;;4921585;29;20047;-68
2023/02/26 05:18:00;;;;;;;8.82;2.60;;;;;0.10;98284.00;;;;4936926;29;20039;-67
2023/02/26 05:20:28;;;;;;;4.70;2.50;;;;;0.10;98283.00;;;;4936891;29;20420;-67
2023/02/26 05:22:54;;;;;;;4.63;3.00;;;;;0.10;98293.00;;;;4936536;29;20098;-67
2023/02/26 05:25:21;;;;;;;9.98;3.45;;;;;0.00;98296.00;;;;4921168;29;20520;-66
2023/02/26 05:27:47;;;;;;;6.72;3.15;;;;;0.10;98295.00;;;;4936779;28;20055;-68
2023/02/26 05:30:15;;;;;;;6.88;3.10;;;;;0.10;98296.00;;;;4921328;29;20407;-67
2023/02/26 05:32:42;;;;;;;4.80;2.95;;;;;0.00;98310.00;;;;4920811;29;20044;-67
2023/02/26 05:35:09;;;;;;;4.88;3.05;;;;;-0.10;98299.00;;;;4954225;29;20448;-67
2023/02/26 05:37:36;;;;;;;5.13;3.03;;;;;-0.10;98310.00;;;;4954161;28;20055;-67
2023/02/26 05:40:10;;;;;;;8.23;3.28;;;;;-0.10;98309.00;;;;4921335;29;20057;-67
2023/02/26 05:42:38;;;;;;;3.92;3.00;;;;;-0.10;98319.00;;;;4958641;29;20043;-67
2023/02/26 05:45:05;;;;;;;5.93;2.97;;;;;-0.10;98312.00;;;;4947582;29;20110;-66
2023/02/26 05:47:33;;;;;;;4.47;2.90;;;;;-0.10;98323.00;;;;4960515;28;20564;-67
2023/02/26 05:50:00;;;;;;;10.07;3.65;;;;;-0.20;98323.00;;;;4954215;29;20043;-67
2023/02/26 05:52:26;;;;;;;4.20;3.42;;;;;-0.20;98325.00;;;;4936697;29;20039;-67
2023/02/26 05:54:53;;;;;;;5.38;3.50;;;;;-0.30;98322.00;;;;4937835;28;20055;-66
2023/02/26 05:57:20;;;;;;;9.90;3.50;;;;;-0.30;98326.00;;;;4936914;29;20658;-67
2023/02/26 05:59:46;;;;;;;4.90;2.78;;;;;-0.30;98327.00;;;;4953944;29;20132;-66
2023/02/26 06:02:13;;;;;;;4.38;3.17;;;;;-0.30;98331.00;;;;4936781;29;20051;-66
2023/02/26 06:04:40;;;;;;;5.05;3.00;;;;;-0.30;98333.00;;;;4936774;29;20568;-66
2023/02/26 06:07:06;;;;;;;6.45;3.20;;;;;-0.30;98333.00;;;;4936986;29;20055;-67
2023/02/26 06:09:33;;;;;;;5.85;2.53;;;;;-0.30;98338.00;;;;4954907;28;20058;-67
2023/02/26 06:11:59;;;;;;;8.82;3.35;;;;;-0.20;98344.00;;;;4953903;28;20043;-67
2023/02/26 06:14:26;;;;;;;6.60;4.35;;;;;-0.30;98344.00;;;;4937065;29;20456;-68
2023/02/26 06:16:52;;;;;;;3.97;2.22;;;;;-0.30;98357.00;;;;4936873;29;20055;-66
2023/02/26 06:19:20;;;;;;;11.98;3.28;;;;;-0.30;98356.00;;;;4954137;28;20058;-67
2023/02/26 06:21:47;;;;;;;5.78;2.70;;;;;-0.30;98359.00;;;;4936352;29;20051;-66
2023/02/26 06:24:13;;;;;;;6.80;3.47;;;;;-0.20;98373.00;;;;4921045;29;20069;-67
2023/02/26 06:26:40;;;;;;;3.70;2.45;;;;;-0.20;98359.00;;;;4953611;28;20083;-68
2023/02/26 06:29:07;;;;;;;5.72;2.60;;;;;-0.20;98371.00;;;;4936744;29;20047;-67
2023/02/26 06:31:34;;;;;;;4.28;2.28;;;;;-0.10;98378.00;;;;4955502;28;20145;-67
2023/02/26 06:34:00;;;;;;;3.75;2.70;;;;;-0.10;98375.00;;;;4924058;29;20054;-67
2023/02/26 06:36:27;;;;;;;4.13;3.20;;;;;0.00;98383.00;;;;4923974;29;20051;-68
2023/02/26 06:38:54;;;;;;;4.55;2.75;;;;;0.10;98390.00;;;;4957233;28;20043;-67
2023/02/26 06:41:20;;;;;;;5.07;2.90;;;;;0.10;98390.00;;;;4923957;29;20047;-68
2023/02/26 06:43:47;;;;;;;3.58;2.20;;;;;0.20;98392.00;;;;4956735;29;20047;-67
2023/02/26 06:46:13;;;;;;;6.60;2.88;;;;;0.20;98390.00;;;;4957336;28;20057;-67
2023/02/26 06:48:40;;;;;;;4.43;2.60;;;;;0.20;98410.00;;;;4924306;29;20047;-67
2023/02/26 06:51:06;;;;;;;4.05;2.50;;;;;0.30;98415.00;;;;4939914;29;20062;-67
2023/02/26 06:53:33;;;;;;;3.90;2.25;;;;;0.20;98420.00;;;;4939577;29;20051;-67
2023/02/26 06:56:00;;;;;;;3.53;1.83;;;;;0.20;98420.00;;;;4942526;29;20054;-67
2023/02/26 06:58:26;;;;;;;4.90;2.45;;;;;0.30;98422.00;;;;4959381;28;20099;-67
2023/02/26 07:00:53;;;;;;;4.25;2.40;;;;;0.40;98422.00;;;;4957895;29;20043;-67
2023/02/26 07:03:20;;;;;;;2.33;2.00;;;;;0.40;98437.00;;;;4938975;29;20051;-67
2023/02/26 07:05:46;;;;;;;4.75;2.40;;;;;0.50;98436.00;;;;4956338;28;20047;-68
2023/02/26 07:08:13;;;;;;;6.63;2.60;;;;;0.40;98432.00;;;;4939282;29;20122;-66
2023/02/26 07:10:40;;;;;;;4.50;2.30;;;;;0.40;98430.00;;;;4923622;29;20078;-66
2023/02/26 07:13:07;;;;;;;3.35;2.17;;;;;0.50;98440.00;;;;4955865;29;20412;-67
2023/02/26 07:15:34;;;;;;;5.63;2.15;;;;;0.50;98438.00;;;;4939598;29;20055;-68
2023/02/26 07:18:00;;;;;;;3.58;2.08;;;;;0.50;98445.00;;;;4939510;29;20040;-67
2023/02/26 07:20:28;;;;;;;4.60;2.47;;;;;0.60;98461.00;;;;4956043;28;20043;-67
2023/02/26 07:22:55;;;;;;;4.45;2.00;;;;;0.60;98452.00;;;;4939001;29;20050;-66
2023/02/26 07:25:21;;;;;;;2.58;1.85;;;;;0.60;98455.00;;;;4956580;28;20051;-67
2023/02/26 07:27:48;;;;;;;7.32;3.33;;;;;0.70;98452.00;;;;4956811;28;20082;-67
2023/02/26 07:30:15;;;;;;;10.88;3.95;;;;;0.80;98462.00;;;;4956781;28;20055;-67
2023/02/26 07:32:42;;;;;;;7.78;3.50;;;;;0.90;98462.00;;;;4939145;28;20058;-68
2023/02/26 07:35:09;;;;;;;5.90;4.10;;;;;1.00;98470.00;;;;4938998;29;20059;-66
2023/02/26 07:37:36;;;;;;;15.93;10.68;;;;;1.00;98464.00;;;;4956760;29;20129;-68
2023/02/26 07:40:03;;;;;;;6.60;2.70;;;;;1.00;98480.00;;;;4939274;29;20043;-67
2023/02/26 07:42:30;;;;;;;6.68;4.25;;;;;1.10;98465.00;;;;4921950;29;20051;-67
2023/02/26 07:44:58;;;;;;;3.97;2.10;;;;;1.20;98480.00;;;;4938950;29;20043;-66
2023/02/26 07:47:25;;;;;;;4.28;2.63;;;;;1.30;98484.00;;;;4955975;28;20047;-67
2023/02/26 07:49:52;;;;;;;5.68;2.90;;;;;1.20;98485.00;;;;4923528;29;20444;-68
2023/02/26 07:52:18;;;;;;;9.23;2.72;;;;;1.50;98487.00;;;;4938791;29;20070;-68
2023/02/26 07:54:45;;;;;;;9.77;2.20;;;;;1.50;98493.00;;;;4955814;28;20043;-67
2023/02/26 07:57:12;;;;;;;4.68;2.10;;;;;1.40;98486.00;;;;4956164;28;20058;-68
2023/02/26 07:59:38;;;;;;;5.03;1.80;;;;;1.30;98490.00;;;;4938383;29;20539;-67
2023/02/26 08:02:06;;;;;;;4.22;2.30;;;;;1.40;98486.00;;;;4922365;29;20074;-69
2023/02/26 08:04:32;;;;;;;3.22;1.77;;;;;1.50;98489.00;;;;4917423;29;20047;-68
2023/02/26 08:07:00;;;;;;;5.65;2.03;;;;;1.50;98488.00;;;;4919620;29;20093;-68
2023/02/26 08:09:27;;;;;;;6.40;3.33;;;;;1.40;98498.00;;;;4919067;29;20048;-66
2023/02/26 08:11:54;;;;;;;10.20;2.40;;;;;1.40;98501.00;;;;4919182;29;20047;-66
2023/02/26 08:14:21;;;;;;;3.00;2.33;;;;;1.30;98505.00;;;;4919033;29;20058;-65
2023/02/26 08:16:48;;;;;;;8.00;1.98;;;;;1.20;98506.00;;;;4919299;29;20048;-68
2023/02/26 08:19:17;;;;;;;6.05;3.25;;;;;1.20;98506.00;;;;4918965;29;20568;-66
2023/02/26 08:21:44;;;;;;;42.00;20.52;;;;;1.30;98520.00;;;;4918789;29;20250;-67
2023/02/26 08:24:11;;;;;;;8.15;4.47;;;;;1.40;98516.00;;;;4919004;29;20058;-67
2023/02/26 08:26:37;;;;;;;3.13;2.05;;;;;1.60;98519.00;;;;4918485;29;20073;-67
2023/02/26 08:29:04;;;;;;;14.35;5.85;;;;;1.40;98525.00;;;;4918781;29;20046;-67
2023/02/26 08:31:33;;;;;;;13.38;6.40;;;;;1.40;98536.00;;;;4935887;29;20094;-67
2023/02/26 08:34:00;;;;;;;4.50;2.25;;;;;1.50;98545.00;;;;4935426;29;20103;-67
2023/02/26 08:36:26;;;;;;;6.53;2.38;;;;;1.40;98529.00;;;;4935619;29;20577;-66
2023/02/26 08:38:57;;;;;;;10.25;6.63;;;;;1.60;98530.00;;;;4935933;29;20422;-68
2023/02/26 08:41:28;;;;;;;33.05;10.32;;;;;1.50;98539.00;;;;4918516;29;20194;-66
2023/02/26 08:43:55;;;;;;;25.52;12.48;;;;;1.50;98535.00;;;;4918740;29;20489;-66
2023/02/26 08:46:22;;;;;;;4.15;2.50;;;;;1.60;98538.00;;;;4903135;29;20048;-66
2023/02/26 08:48:49;;;;;;;4.05;2.08;;;;;1.60;98534.00;;;;4918812;29;20519;-64
2023/02/26 08:51:15;;;;;;;3.90;2.00;;;;;1.70;98534.00;;;;4919150;29;20047;-67
2023/02/26 08:53:44;;;;;;;12.88;2.20;;;;;1.70;98529.00;;;;4918085;29;20553;-64
2023/02/26 08:56:10;;;;;;;3.70;2.60;;;;;1.50;98535.00;;;;4902989;29;20087;-64
2023/02/26 08:58:37;;;;;;;4.78;2.30;;;;;1.50;98545.00;;;;4935722;29;20043;-64
2023/02/26 09:01:04;;;;;;;3.97;1.83;;;;;1.50;98542.00;;;;4918781;29;20055;-67
2023/02/26 09:03:30;;;;;;;3.25;1.70;;;;;1.50;98546.00;;;;4918395;29;20083;-65
2023/02/26 09:05:57;;;;;;;2.88;1.50;;;;;1.70;98547.00;;;;4918642;29;20044;-66
2023/02/26 09:08:24;;;;;;;6.35;1.75;;;;;1.60;98550.00;;;;4918517;29;20059;-66
2023/02/26 09:10:50;;;;;;;2.17;1.75;;;;;1.60;98555.00;;;;4918516;29;20056;-67
2023/02/26 09:13:17;;;;;;;4.90;1.55;;;;;1.70;98549.00;;;;4934947;29;20035;-67
2023/02/26 09:15:44;;;;;;;4.10;1.77;;;;;1.60;98552.00;;;;4933796;29;20056;-67
2023/02/26 09:18:14;;;;;;;3.08;1.95;;;;;1.90;98565.00;;;;4934474;29;20040;-67
2023/02/26 09:20:42;;;;;;;3.22;1.80;;;;;2.10;98564.00;;;;4934612;29;20075;-66
2023/02/26 09:23:09;;;;;;;6.35;2.42;;;;;2.30;98573.00;;;;4935167;29;20047;-67
2023/02/26 09:25:36;;;;;;;3.90;1.83;;;;;2.50;98572.00;;;;4934431;29;20055;-68
2023/02/26 09:28:03;;;;;;;4.55;1.40;;;;;2.60;98582.00;;;;4935344;29;20055;-66
2023/02/26 09:30:30;;;;;;;7.15;2.00;;;;;2.50;98569.00;;;;4934324;29;20111;-64
2023/02/26 09:32:57;;;;;;;3.10;1.40;;;;;2.50;98566.00;;;;4935721;29;20052;-66
2023/02/26 09:35:24;;;;;;;1.88;1.77;;;;;2.40;98579.00;;;;4946452;29;20044;-65
2023/02/26 09:37:51;;;;;;;5.22;1.60;;;;;2.40;98586.00;;;;4949143;29;20071;-67
2023/02/26 09:40:31;;;;;;;4.68;2.15;;;;;2.50;98587.00;;;;4938630;29;20046;-64
2023/02/26 09:43:12;;;;;;;3.05;1.90;;;;;2.40;98577.00;;;;4934599;29;20052;-64
2023/02/26 09:45:41;;;;;;;3.13;1.67;;;;;2.40;98587.00;;;;4935479;29;20095;-64
2023/02/26 09:48:14;;;;;;;4.72;1.85;;;;;2.30;98612.00;;;;4935470;29;20465;-65
2023/02/26 09:50:52;;;;;;;2.67;1.63;;;;;2.10;98596.00;;;;4934170;29;20047;-65
2023/02/26 09:53:23;;;;;;;4.68;2.45;;;;;2.00;98600.00;;;;4933733;29;20044;-65
2023/02/26 09:55:52;;;;;;;2.63;1.70;;;;;2.00;98595.00;;;;4935506;29;20091;-68
2023/02/26 09:58:30;;;;;;;3.90;2.00;;;;;2.20;98605.00;;;;4935349;29;20051;-68
2023/02/26 10:01:18;;;;;;;3.33;2.00;;;;;2.10;98609.00;;;;4934162;29;20048;-66
2023/02/26 10:04:12;;;;;;;2.20;2.00;;;;;2.10;98621.00;;;;4935040;29;20054;-65
2023/02/26 10:07:24;;;;;;;2.70;1.60;;;;;1.90;98623.00;;;;4936010;29;20118;-66
2023/02/26 10:10:14;;;;;;;3.05;1.92;;;;;1.90;98616.00;;;;4938819;29;20051;-66
2023/02/26 10:12:43;;;;;;;3.33;1.77;;;;;1.80;98594.00;;;;4937744;29;20508;-67
2023/02/26 10:15:38;;;;;;;3.13;1.80;;;;;2.00;98621.00;;;;4921687;29;20043;-65
2023/02/26 10:18:16;;;;;;;5.88;2.20;;;;;2.00;98626.00;;;;4938815;29;20462;-67
2023/02/26 10:21:07;;;;;;;5.22;2.17;;;;;1.90;98617.00;;;;4937504;29;20071;-66
2023/02/26 10:23:42;;;;;;;3.97;2.78;;;;;2.00;98617.00;;;;4936769;29;20054;-66
2023/02/26 10:26:28;;;;;;;3.45;1.95;;;;;2.00;98624.00;;;;4938357;29;20052;-65
2023/02/26 10:29:20;;;;;;;6.88;2.10;;;;;2.10;98629.00;;;;4938199;29;20055;-69
2023/02/26 10:32:16;;;;;;;2.40;1.95;;;;;2.00;98628.00;;;;4936457;29;20079;-65
2023/02/26 10:34:53;;;;;;;4.35;2.05;;;;;2.00;98629.00;;;;4915653;29;20066;-63
2023/02/26 10:37:40;;;;;;;3.30;1.95;;;;;2.00;98629.00;;;;4933345;29;20062;-64
2023/02/26 10:40:26;;;;;;;5.03;1.88;;;;;2.10;98625.00;;;;4918013;29;20048;-65
2023/02/26 10:43:03;;;;;;;5.93;2.15;;;;;2.00;98631.00;;;;4916679;29;20047;-66
2023/02/26 10:46:06;;;;;;;2.20;1.80;;;;;2.00;98633.00;;;;4935064;29;20044;-66
2023/02/26 10:48:58;;;;;;;2.47;1.80;;;;;2.20;98640.00;;;;4918277;29;20083;-66
2023/02/26 10:51:32;;;;;;;2.30;1.75;;;;;2.30;98643.00;;;;4907720;29;20051;-65
2023/02/26 10:54:09;;;;;;;2.42;1.60;;;;;2.30;98637.00;;;;4934408;29;20047;-66
2023/02/26 10:56:35;;;;;;;1.92;1.45;;;;;2.50;98641.00;;;;4936020;29;20043;-67
2023/02/26 10:59:02;;;;;;;2.88;1.90;;;;;2.60;98645.00;;;;4900469;29;20052;-65
2023/02/26 11:01:29;;;;;;;6.20;4.63;;;;;2.60;98648.00;;;;4931493;29;20051;-64
2023/02/26 11:04:11;;;;;;;2.80;1.50;;;;;2.60;98651.00;;;;4913864;29;20047;-65
2023/02/26 11:06:42;;;;;;;8.35;2.17;;;;;2.60;98660.00;;;;4924951;29;20485;-67
2023/02/26 11:09:21;;;;;;;5.15;2.53;;;;;2.60;98655.00;;;;4929394;29;20052;-63
2023/02/26 11:11:52;;;;;;;2.92;1.90;;;;;2.70;98648.00;;;;4913508;29;20500;-66
2023/02/26 11:14:20;;;;;;;2.63;1.73;;;;;2.80;98653.00;;;;4913614;29;20058;-65
2023/02/26 11:17:00;;;;;;;2.67;1.92;;;;;2.80;98656.00;;;;4930262;29;20786;-65
2023/02/26 11:19:36;;;;;;;1.95;1.75;;;;;2.90;98663.00;;;;4930877;29;20052;-66
2023/02/26 11:22:06;;;;;;;2.83;1.70;;;;;2.90;98663.00;;;;4929378;29;20536;-66
2023/02/26 11:24:39;;;;;;;4.28;1.58;;;;;3.10;98664.00;;;;4929630;29;20047;-64
2023/02/26 11:27:12;;;;;;;2.17;1.33;;;;;3.10;98671.00;;;;4929831;29;20051;-66
2023/02/26 11:29:41;;;;;;;2.22;1.73;;;;;3.20;98669.00;;;;4912169;29;20059;-66
2023/02/26 11:32:21;;;;;;;1.85;1.40;;;;;3.20;98663.00;;;;4913463;29;20642;-65
2023/02/26 11:34:50;;;;;;;1.90;1.40;;;;;3.20;98668.00;;;;4913773;29;20119;-64
2023/02/26 11:37:32;;;;;;;1.58;1.30;;;;;3.10;98669.00;;;;4913197;29;20055;-63
2023/02/26 11:40:24;;;;;;;2.92;1.30;;;;;3.10;98665.00;;;;4929424;29;20048;-64
2023/02/26 11:42:59;;;;;;;1.25;1.15;;;;;3.20;98672.00;;;;4911930;29;20051;-63
2023/02/26 11:45:26;;;;;;;5.35;1.50;;;;;3.20;98671.00;;;;4912850;29;20075;-63
2023/02/26 11:48:01;;;;;;;2.40;2.20;;;;;3.20;98683.00;;;;4913140;29;20055;-65
2023/02/26 11:50:29;;;;;;;2.47;2.03;;;;;3.20;98672.00;;;;4913011;29;20726;-64
2023/02/26 11:53:06;;;;;;;1.45;1.13;;;;;3.40;98684.00;;;;4930483;29;20043;-63
2023/02/26 11:55:37;;;;;;;2.88;1.10;;;;;3.30;98679.00;;;;4913793;29;20059;-64
2023/02/26 11:58:16;;;;;;;0.93;0.90;;;;;3.20;98687.00;;;;4913704;29;20138;-64
2023/02/26 12:00:43;;;;;;;3.53;1.17;;;;;3.00;98668.00;;;;4913759;29;20862;-64
2023/02/26 12:03:20;;;;;;;4.28;1.08;;;;;3.00;98683.00;;;;4912652;29;20047;-65
2023/02/26 12:05:49;;;;;;;3.25;1.40;;;;;3.00;98687.00;;;;4929480;29;20561;-64
2023/02/26 12:08:24;;;;;;;5.15;2.00;;;;;2.80;98694.00;;;;4929430;29;20085;-64
2023/02/26 12:10:56;;;;;;;1.58;1.48;;;;;2.80;98691.00;;;;4913074;29;20058;-64
2023/02/26 12:13:32;;;;;;;1.67;1.58;;;;;2.80;98695.00;;;;4928574;29;20051;-63
2023/02/26 12:16:16;;;;;;;4.55;2.15;;;;;2.80;98693.00;;;;4929593;29;20048;-64
2023/02/26 12:19:00;;;;;;;3.55;1.80;;;;;3.00;98679.00;;;;4928969;29;20062;-63
2023/02/26 12:21:56;;;;;;;2.20;1.52;;;;;3.00;98682.00;;;;4912588;29;20078;-65
2023/02/26 12:24:46;;;;;;;1.77;1.65;;;;;3.00;98672.00;;;;4911057;29;20066;-65
2023/02/26 12:27:48;;;;;;;2.75;1.90;;;;;3.10;98670.00;;;;4923754;29;20059;-65
2023/02/26 12:30:39;;;;;;;4.25;1.80;;;;;3.10;98673.00;;;;4911247;29;20090;-64
2023/02/26 12:33:30;;;;;;;2.15;1.83;;;;;3.30;98678.00;;;;4928148;29;20047;-64
2023/02/26 12:36:16;;;;;;;4.13;1.77;;;;;3.40;98678.00;;;;4929258;29;20043;-62
2023/02/26 12:39:14;;;;;;;2.80;1.80;;;;;3.60;98677.00;;;;4911855;29;20072;-64
2023/02/26 12:41:43;;;;;;;2.40;1.60;;;;;3.50;98674.00;;;;4929355;29;20055;-64
2023/02/26 12:44:39;;;;;;;4.30;1.73;;;;;3.50;98672.00;;;;4925872;29;20051;-62
2023/02/26 12:47:36;;;;;;;2.75;1.40;;;;;3.40;98672.00;;;;4857660;29;20055;-64
2023/02/26 12:50:35;;;;;;;4.38;1.52;;;;;3.50;98658.00;;;;4910589;29;20049;-63
2023/02/26 12:53:33;;;;;;;1.60;1.50;;;;;3.50;98664.00;;;;4929883;29;20544;-64
2023/02/26 12:56:38;;;;;;;4.15;1.83;;;;;3.60;98671.00;;;;4912338;29;20571;-63